Time;durP1;ratioP1;P1;durP2;ratioP2;P2;SDS_P1;SDS_P2;PMS_P1;PMS_P2;Temp;Humidity;BMP_temperature;BMP_pressure;BME280_temperature;BME280_humidity;BME280_pressure;Samples;Min_cycle;Max_cycle;Signal;HPM_P1;HPM_P2
2021/09/05 00:00:09;;;;;;;7.65;3.67;;;;;;;20.50;45.15;99754.59;5049388;28;20033;-43
2021/09/05 00:02:35;;;;;;;4.43;3.47;;;;;;;20.67;44.60;99748.97;5047986;28;20064;-42
2021/09/05 00:05:00;;;;;;;4.95;3.65;;;;;;;20.76;44.34;99744.66;5049570;28;20025;-42
2021/09/05 00:07:26;;;;;;;5.80;3.63;;;;;;;20.73;44.52;99747.88;5047966;28;20024;-42
2021/09/05 00:09:51;;;;;;;7.68;3.80;;;;;;;20.84;44.27;99749.50;5049362;28;20114;-42
2021/09/05 00:12:17;;;;;;;8.50;3.90;;;;;;;20.80;44.36;99750.31;5052036;28;20036;-42
2021/09/05 00:14:42;;;;;;;7.82;3.70;;;;;;;20.85;44.40;99750.34;5052027;28;20376;-42
2021/09/05 00:17:08;;;;;;;8.88;3.70;;;;;;;20.94;44.57;99759.50;5052081;28;20021;-42
2021/09/05 00:19:33;;;;;;;4.82;3.70;;;;;;;21.03;44.19;99762.47;5051907;28;20677;-42
2021/09/05 00:21:59;;;;;;;4.85;3.80;;;;;;;21.06;43.81;99762.75;5052247;28;20067;-42
2021/09/05 00:24:24;;;;;;;7.55;3.97;;;;;;;20.95;43.90;99754.94;5050792;28;20021;-42
2021/09/05 00:26:50;;;;;;;7.70;3.53;;;;;;;21.03;44.42;99763.28;5032632;28;20033;-42
2021/09/05 00:29:16;;;;;;;6.65;3.60;;;;;;;21.03;44.27;99763.28;5032351;28;20052;-42
2021/09/05 00:31:41;;;;;;;7.70;3.72;;;;;;;21.01;44.10;99765.44;5032558;28;20053;-42
2021/09/05 00:34:07;;;;;;;5.53;3.80;;;;;;;20.98;44.10;99771.44;5032584;28;20048;-42
2021/09/05 00:36:32;;;;;;;8.85;4.35;;;;;;;20.73;44.59;99772.22;5032096;28;20040;-42
2021/09/05 00:38:58;;;;;;;5.78;3.90;;;;;;;20.55;45.21;99773.53;5032312;28;20462;-42
2021/09/05 00:41:23;;;;;;;5.78;3.88;;;;;;;20.70;45.32;99772.78;5032159;28;20375;-43
2021/09/05 00:43:52;;;;;;;7.47;3.80;;;;;;;20.72;45.12;99773.31;5032153;28;20052;-42
2021/09/05 00:46:18;;;;;;;7.78;4.35;;;;;;;20.90;44.40;99780.06;5031982;28;20042;-42
2021/09/05 00:48:43;;;;;;;7.65;4.07;;;;;;;20.85;44.27;99771.97;5031953;28;20025;-42
2021/09/05 00:51:08;;;;;;;6.38;3.78;;;;;;;20.79;44.38;99765.75;5031978;28;20028;-42
2021/09/05 00:53:34;;;;;;;5.78;4.10;;;;;;;20.78;44.77;99777.63;5013949;28;20036;-42
2021/09/05 00:55:59;;;;;;;6.38;4.20;;;;;;;20.74;44.96;99786.56;5032266;28;20028;-42
2021/09/05 00:58:25;;;;;;;5.43;3.80;;;;;;;20.82;44.27;99784.13;5032293;28;20466;-42
2021/09/05 01:00:50;;;;;;;5.72;4.22;;;;;;;20.70;44.62;99773.56;5032364;28;20312;-42
2021/09/05 01:03:16;;;;;;;5.60;3.65;;;;;;;20.65;45.34;99800.59;5031128;28;20030;-42
2021/09/05 01:05:41;;;;;;;6.53;4.05;;;;;;;20.56;45.46;99794.09;5032694;28;20029;-42
2021/09/05 01:08:07;;;;;;;7.63;3.67;;;;;;;20.57;45.48;99794.91;5030569;28;20033;-42
2021/09/05 01:10:32;;;;;;;5.38;3.65;;;;;;;20.45;45.67;99793.25;5030979;28;20049;-42
2021/09/05 01:12:57;;;;;;;7.32;3.88;;;;;;;20.38;45.60;99772.97;5031692;28;20379;-42
2021/09/05 01:15:23;;;;;;;7.22;3.83;;;;;;;20.42;45.96;99790.28;5031194;28;20036;-42
2021/09/05 01:17:48;;;;;;;5.70;3.83;;;;;;;20.39;45.67;99797.03;5031662;28;20021;-42
2021/09/05 01:20:14;;;;;;;6.20;4.00;;;;;;;20.40;45.77;99795.13;5031539;28;20032;-42
2021/09/05 01:22:39;;;;;;;5.32;4.07;;;;;;;20.39;46.07;99790.78;5030840;28;20026;-42
2021/09/05 01:25:05;;;;;;;6.30;4.13;;;;;;;20.28;46.23;99796.19;5039556;28;20032;-42
2021/09/05 01:27:31;;;;;;;6.70;4.18;;;;;;;20.30;46.30;99791.34;5052078;28;20029;-42
2021/09/05 01:29:56;;;;;;;7.43;4.15;;;;;;;20.35;46.25;99795.13;5051324;28;20041;-42
2021/09/05 01:32:22;;;;;;;9.13;4.10;;;;;;;20.07;46.75;99787.22;5031399;28;20060;-42
2021/09/05 01:34:47;;;;;;;5.95;4.28;;;;;;;19.87;47.01;99792.53;5031770;28;20397;-42
2021/09/05 01:37:13;;;;;;;12.27;4.50;;;;;;;19.94;47.13;99786.91;5031975;28;20456;-42
2021/09/05 01:39:38;;;;;;;8.75;4.30;;;;;;;19.90;47.01;99790.13;5031706;28;20036;-42
2021/09/05 01:42:04;;;;;;;5.70;4.10;;;;;;;19.97;46.79;99789.91;5030841;28;20049;-42
2021/09/05 01:44:29;;;;;;;7.50;4.20;;;;;;;20.00;46.79;99791.25;5030916;28;20025;-42
2021/09/05 01:46:55;;;;;;;11.07;4.40;;;;;;;20.10;46.73;99789.41;5030961;28;20133;-42
2021/09/05 01:49:20;;;;;;;7.03;4.28;;;;;;;20.05;46.80;99791.28;5029070;28;20099;-42
2021/09/05 01:51:46;;;;;;;8.43;3.97;;;;;;;20.05;47.01;99791.28;5030878;28;20029;-42
2021/09/05 01:54:11;;;;;;;6.43;4.28;;;;;;;19.91;47.15;99790.94;5030756;28;20052;-42
2021/09/05 01:56:37;;;;;;;6.47;4.47;;;;;;;20.09;46.63;99797.75;5030825;28;20132;-42
2021/09/05 01:59:03;;;;;;;6.43;4.18;;;;;;;20.20;46.67;99796.72;5030072;28;20470;-42
2021/09/05 02:01:29;;;;;;;11.02;4.25;;;;;;;20.15;46.61;99804.00;5030855;28;20021;-42
2021/09/05 02:03:55;;;;;;;5.65;3.97;;;;;;;20.11;46.68;99803.72;5031548;28;20056;-42
2021/09/05 02:06:21;;;;;;;6.10;4.00;;;;;;;20.04;47.05;99803.94;5031068;28;20021;-42
2021/09/05 02:08:46;;;;;;;6.38;4.10;;;;;;;20.03;47.41;99805.03;5031053;28;20064;-42
2021/09/05 02:11:12;;;;;;;5.82;4.10;;;;;;;20.17;46.89;99816.16;5030644;28;20029;-42
2021/09/05 02:13:38;;;;;;;7.97;4.00;;;;;;;20.16;47.11;99811.81;5030707;28;20021;-41
2021/09/05 02:16:04;;;;;;;7.10;4.20;;;;;;;20.22;47.28;99816.16;5029706;28;20029;-41
2021/09/05 02:18:30;;;;;;;7.32;4.18;;;;;;;20.24;46.78;99813.22;5030744;28;20025;-41
2021/09/05 02:20:55;;;;;;;7.85;4.30;;;;;;;20.28;46.74;99808.91;5030485;28;20095;-42
2021/09/05 02:23:21;;;;;;;6.32;4.00;;;;;;;20.28;46.75;99811.59;5030885;28;20503;-41
2021/09/05 02:25:46;;;;;;;7.25;4.20;;;;;;;20.21;46.96;99817.25;5043846;28;20021;-41
2021/09/05 02:28:12;;;;;;;6.95;4.28;;;;;;;20.20;47.08;99806.69;5050482;28;20538;-41
2021/09/05 02:30:37;;;;;;;7.00;4.15;;;;;;;20.14;46.90;99810.47;5050685;28;20009;-42
2021/09/05 02:33:03;;;;;;;5.80;3.88;;;;;;;20.06;47.20;99809.09;5050304;28;20028;-41
2021/09/05 02:35:28;;;;;;;7.65;3.80;;;;;;;20.09;47.13;99812.06;5049996;28;20021;-41
2021/09/05 02:37:54;;;;;;;6.38;4.53;;;;;;;20.21;47.33;99813.72;5050602;28;20573;-42
2021/09/05 02:40:19;;;;;;;5.88;4.05;;;;;;;20.26;46.98;99813.75;5049734;28;20055;-42
2021/09/05 02:42:45;;;;;;;7.10;4.35;;;;;;;20.17;47.59;99816.16;5050184;28;20611;-41
2021/09/05 02:45:10;;;;;;;6.63;4.25;;;;;;;20.22;47.09;99816.16;5049807;28;20105;-41
2021/09/05 02:47:36;;;;;;;6.57;4.00;;;;;;;20.26;47.00;99814.56;5049444;28;20032;-41
2021/09/05 02:50:02;;;;;;;6.97;4.28;;;;;;;20.37;46.82;99817.28;5049323;28;20027;-42
2021/09/05 02:52:27;;;;;;;6.05;4.10;;;;;;;20.35;46.63;99822.13;5049908;28;20032;-42
2021/09/05 02:54:53;;;;;;;6.18;4.18;;;;;;;20.28;47.34;99817.81;5049024;28;20017;-41
2021/09/05 02:57:18;;;;;;;7.30;3.97;;;;;;;20.29;46.80;99814.00;5049604;28;20032;-42
2021/09/05 02:59:44;;;;;;;6.80;4.40;;;;;;;20.19;47.53;99816.69;5049519;28;20024;-42
2021/09/05 03:02:09;;;;;;;7.03;4.40;;;;;;;20.15;47.24;99812.91;5049981;28;20024;-42
2021/09/05 03:04:35;;;;;;;6.80;4.30;;;;;;;20.26;47.54;99814.56;5049500;28;20029;-42
2021/09/05 03:07:00;;;;;;;6.53;4.22;;;;;;;20.31;47.35;99811.88;5049005;28;20056;-42
2021/09/05 03:09:26;;;;;;;7.88;4.43;;;;;;;20.26;47.45;99814.56;5048789;28;20513;-41
2021/09/05 03:11:51;;;;;;;6.18;4.07;;;;;;;20.24;47.61;99813.22;5049200;28;20025;-42
2021/09/05 03:14:17;;;;;;;9.02;4.30;;;;;;;20.29;47.26;99819.41;5048470;28;20021;-41
2021/09/05 03:16:42;;;;;;;7.25;4.80;;;;;;;20.35;47.11;99819.44;5049515;28;20021;-41
2021/09/05 03:19:08;;;;;;;6.80;4.53;;;;;;;20.17;48.25;99815.34;5048994;28;20072;-41
2021/09/05 03:21:33;;;;;;;7.68;4.38;;;;;;;20.07;48.15;99814.22;5049174;28;20029;-41
2021/09/05 03:23:59;;;;;;;9.25;4.97;;;;;;;20.13;48.13;99820.47;5049301;28;20025;-41
2021/09/05 03:26:24;;;;;;;11.80;4.60;;;;;;;20.15;48.16;99821.00;5031596;28;20083;-41
2021/09/05 03:28:50;;;;;;;8.30;4.72;;;;;;;20.19;48.26;99818.59;5029647;28;20028;-41
2021/09/05 03:31:15;;;;;;;9.85;5.05;;;;;;;20.34;47.46;99824.03;5041220;28;20029;-41
2021/09/05 03:33:41;;;;;;;10.00;4.75;;;;;;;20.13;47.62;99809.66;5048768;28;20411;-41
2021/09/05 03:36:06;;;;;;;9.73;4.70;;;;;;;20.27;47.87;99823.47;5049215;28;20009;-42
2021/09/05 03:38:32;;;;;;;10.43;4.70;;;;;;;20.22;47.77;99821.56;5048733;28;20040;-42
2021/09/05 03:40:57;;;;;;;6.28;4.78;;;;;;;20.16;47.80;99830.72;5048730;28;20029;-42
2021/09/05 03:43:23;;;;;;;10.82;4.70;;;;;;;20.08;48.06;99836.63;5048992;28;20489;-42
2021/09/05 03:45:48;;;;;;;9.60;4.90;;;;;;;20.26;48.16;99838.88;5051121;28;20029;-42
2021/09/05 03:48:14;;;;;;;8.77;4.85;;;;;;;20.28;48.26;99839.41;5053256;28;20055;-42
2021/09/05 03:50:39;;;;;;;9.48;4.85;;;;;;;20.21;48.94;99851.56;5052147;28;20032;-41
2021/09/05 03:53:05;;;;;;;8.60;4.70;;;;;;;20.20;48.63;99849.91;5053515;28;20100;-41
2021/09/05 03:55:30;;;;;;;8.27;4.32;;;;;;;20.11;48.72;99849.63;5053306;28;20032;-41
2021/09/05 03:57:55;;;;;;;9.52;4.65;;;;;;;20.33;47.66;99851.31;5053595;28;20444;-41
2021/09/05 04:00:21;;;;;;;10.85;4.90;;;;;;;20.42;46.71;99845.13;5053330;28;20028;-40
2021/09/05 04:02:46;;;;;;;6.88;4.57;;;;;;;20.41;47.00;99851.63;5053665;28;20515;-42
2021/09/05 04:05:12;;;;;;;8.73;5.05;;;;;;;20.26;47.10;99859.69;5053621;28;20025;-40
2021/09/05 04:07:44;;;;;;;8.27;5.10;;;;;;;20.30;46.98;99858.88;5052923;28;20021;-41
2021/09/05 04:10:10;;;;;;;8.93;4.65;;;;;;;20.31;47.40;99863.22;5052819;28;20110;-42
2021/09/05 04:12:40;;;;;;;8.85;5.20;;;;;;;20.33;47.18;99862.13;5053128;28;20100;-41
2021/09/05 04:15:06;;;;;;;7.95;4.70;;;;;;;20.46;47.50;99858.94;5051854;28;20052;-41
2021/09/05 04:17:31;;;;;;;10.43;5.20;;;;;;;20.57;46.62;99863.28;5053746;28;20052;-41
2021/09/05 04:19:57;;;;;;;7.10;4.97;;;;;;;20.65;47.01;99862.78;5052709;28;20021;-42
2021/09/05 04:22:22;;;;;;;8.25;5.18;;;;;;;20.43;47.04;99864.88;5053482;28;20024;-42
2021/09/05 04:25:31;;;;;;;7.28;4.78;;;;;;;20.29;47.76;99862.66;5053376;28;20034;-42
2021/09/05 04:27:56;;;;;;;8.65;5.43;;;;;;;20.33;47.69;99864.84;5052804;28;20108;-42
2021/09/05 04:30:22;;;;;;;9.68;5.00;;;;;;;20.43;47.44;99862.97;5049321;28;20022;-42
2021/09/05 04:32:47;;;;;;;8.07;5.28;;;;;;;20.63;47.41;99864.94;5033374;28;20135;-42
2021/09/05 04:35:13;;;;;;;10.93;5.90;;;;;;;20.69;46.29;99869.31;5031822;28;20068;-41
2021/09/05 04:37:38;;;;;;;13.02;6.07;;;;;;;19.80;48.77;99870.25;5032537;28;20017;-42
2021/09/05 04:40:05;;;;;;;8.15;5.43;;;;;;;19.92;49.25;99871.69;5032043;28;20083;-42
2021/09/05 04:42:30;;;;;;;7.20;5.75;;;;;;;20.04;48.22;99870.66;5031365;28;20113;-42
2021/09/05 04:44:56;;;;;;;8.35;6.03;;;;;;;20.21;48.25;99873.97;5030993;28;20134;-41
2021/09/05 04:47:21;;;;;;;8.20;5.97;;;;;;;20.27;47.70;99881.00;5037169;28;20021;-41
2021/09/05 04:49:47;;;;;;;8.23;6.10;;;;;;;20.48;47.71;99879.19;5052571;28;20448;-41
2021/09/05 04:52:12;;;;;;;8.95;6.13;;;;;;;20.91;46.56;99883.66;5052127;28;20350;-42
2021/09/05 04:54:38;;;;;;;11.50;6.50;;;;;;;21.42;45.33;99887.19;5050605;28;20049;-42
2021/09/05 04:57:04;;;;;;;10.32;6.43;;;;;;;21.50;45.55;99887.78;5052934;28;20082;-42
2021/09/05 04:59:30;;;;;;;8.80;6.75;;;;;;;21.74;44.50;99882.56;5052543;28;20469;-42
2021/09/05 05:01:55;;;;;;;10.68;7.25;;;;;;;22.02;44.02;99895.50;5052277;28;20021;-41
2021/09/05 05:04:21;;;;;;;16.73;11.45;;;;;;;21.54;45.24;99897.78;5050552;28;20021;-43
2021/09/05 05:06:46;;;;;;;11.13;7.38;;;;;;;21.39;45.11;99892.34;5052110;28;20354;-42
2021/09/05 05:09:12;;;;;;;19.70;14.15;;;;;;;21.64;44.65;99897.75;5051532;28;20045;-42
2021/09/05 05:11:38;;;;;;;23.70;16.42;;;;;;;21.80;44.19;99890.44;5051749;28;20105;-42
2021/09/05 05:14:03;;;;;;;15.15;8.52;;;;;;;22.01;44.33;99896.59;5051348;28;20024;-42
2021/09/05 05:16:29;;;;;;;9.85;6.22;;;;;;;21.86;43.92;99891.22;5051915;28;20383;-42
2021/09/05 05:18:54;;;;;;;9.50;6.30;;;;;;;21.86;44.52;99897.44;5052033;28;20031;-42
2021/09/05 05:21:20;;;;;;;9.02;6.80;;;;;;;21.80;44.40;99890.44;5051317;28;20481;-43
2021/09/05 05:27:06;;;;;;;8.20;5.95;;;;;;;21.80;44.32;99893.13;5051903;28;20060;-42
2021/09/05 05:29:32;;;;;;;7.20;5.82;;;;;;;21.99;43.32;99892.53;5051496;28;20033;-41
2021/09/05 05:31:57;;;;;;;8.73;6.20;;;;;;;21.66;43.97;99894.78;5051783;28;20040;-43
2021/09/05 05:34:23;;;;;;;10.90;6.78;;;;;;;21.58;44.28;99890.72;5051078;28;20029;-42
2021/09/05 05:36:48;;;;;;;10.02;6.05;;;;;;;21.58;44.34;99893.44;5050934;28;20059;-44
2021/09/05 05:39:14;;;;;;;8.18;6.45;;;;;;;21.77;43.50;99895.56;5050979;28;20090;-42
2021/09/05 05:41:40;;;;;;;9.25;6.18;;;;;;;21.92;44.02;99902.88;5050503;28;20025;-42
2021/09/05 05:44:05;;;;;;;9.85;6.28;;;;;;;21.99;43.51;99903.38;5051173;28;20435;-42
2021/09/05 05:46:31;;;;;;;6.68;5.45;;;;;;;21.95;43.08;99905.00;5050720;28;20017;-41
2021/09/05 05:48:56;;;;;;;7.43;5.75;;;;;;;22.06;42.97;99912.03;5033300;28;20029;-41
2021/09/05 05:51:22;;;;;;;9.05;5.68;;;;;;;22.41;42.38;99911.13;5031031;28;20080;-42
2021/09/05 05:53:47;;;;;;;9.80;6.20;;;;;;;22.88;41.78;99908.94;5030794;28;20101;-43
2021/09/05 05:56:13;;;;;;;9.77;6.43;;;;;;;23.13;41.02;99899.03;5029884;28;20701;-44
2021/09/05 05:58:38;;;;;;;9.73;5.53;;;;;;;23.47;40.59;99899.03;5030985;28;20021;-43
2021/09/05 06:01:03;;;;;;;7.35;5.15;;;;;;;23.79;39.58;99900.41;5030814;28;20036;-43
2021/09/05 06:03:29;;;;;;;9.07;5.78;;;;;;;23.75;39.86;99905.56;5031151;28;20025;-42
2021/09/05 06:05:54;;;;;;;9.25;5.45;;;;;;;24.28;38.99;99906.66;5030684;28;20021;-42
2021/09/05 06:08:20;;;;;;;10.75;6.03;;;;;;;24.78;37.99;99905.19;5029149;28;20059;-41
2021/09/05 06:10:46;;;;;;;8.23;5.50;;;;;;;25.10;37.50;99900.09;5029919;28;20053;-42
2021/09/05 06:13:11;;;;;;;9.25;5.70;;;;;;;24.72;38.48;99903.63;5030447;28;20021;-43
2021/09/05 06:15:36;;;;;;;6.78;5.78;;;;;;;24.90;38.48;99907.47;5029381;28;20021;-41
2021/09/05 06:18:04;;;;;;;7.95;5.70;;;;;;;25.29;37.65;99909.06;5031510;28;20025;-41
2021/09/05 06:20:30;;;;;;;11.20;5.80;;;;;;;25.67;36.86;99910.88;5030597;28;20029;-42
2021/09/05 06:22:55;;;;;;;18.52;14.43;;;;;;;26.19;35.92;99917.00;5030893;28;20033;-43
2021/09/05 06:25:54;;;;;;;9.07;6.90;;;;;;;27.12;34.77;99913.09;5031041;28;20504;-43
2021/09/05 06:28:19;;;;;;;7.70;5.80;;;;;;;26.95;34.71;99908.28;4996505;28;20045;-42
2021/09/05 06:30:45;;;;;;;6.82;5.70;;;;;;;27.22;33.84;99912.81;5030814;28;20029;-42
2021/09/05 06:33:10;;;;;;;7.88;5.00;;;;;;;27.90;33.56;99912.78;5030656;28;20026;-44
2021/09/05 06:35:36;;;;;;;7.53;5.38;;;;;;;28.10;33.37;99913.34;5029509;28;20619;-42
2021/09/05 06:38:01;;;;;;;6.82;5.10;;;;;;;28.57;32.50;99911.72;5030353;28;20060;-42
2021/09/05 06:40:27;;;;;;;9.27;5.32;;;;;;;28.50;32.86;99910.53;5030000;28;20385;-42
2021/09/05 06:42:52;;;;;;;7.18;5.20;;;;;;;28.85;31.16;99914.97;5030088;28;20120;-42
2021/09/05 06:45:18;;;;;;;8.80;5.65;;;;;;;29.55;30.96;99914.09;5030362;28;20033;-43
2021/09/05 06:47:43;;;;;;;7.10;4.97;;;;;;;28.95;31.21;99916.56;5037466;28;20565;-43
2021/09/05 06:50:11;;;;;;;9.70;7.85;;;;;;;28.90;31.26;99919.50;5049933;28;20040;-42
2021/09/05 06:52:37;;;;;;;8.82;6.43;;;;;;;29.62;30.67;99919.88;5050143;28;20076;-44
2021/09/05 06:55:03;;;;;;;5.22;4.53;;;;;;;29.18;30.29;99922.69;5049656;28;20449;-43
2021/09/05 06:57:28;;;;;;;7.93;4.30;;;;;;;29.80;29.45;99929.69;5049037;28;20087;-43
2021/09/05 06:59:54;;;;;;;7.32;4.95;;;;;;;29.93;29.43;99930.63;5050047;28;20040;-42
2021/09/05 07:02:21;;;;;;;9.68;5.70;;;;;;;30.16;29.35;99938.59;5049502;28;20432;-42
2021/09/05 07:04:46;;;;;;;5.32;4.15;;;;;;;30.59;28.72;99943.84;5048236;28;20031;-42
2021/09/05 07:07:12;;;;;;;7.85;4.93;;;;;;;30.20;29.29;99942.28;5049193;28;20021;-43
2021/09/05 07:09:37;;;;;;;6.57;4.30;;;;;;;30.34;28.50;99942.88;5049287;28;20045;-42
2021/09/05 07:12:03;;;;;;;6.93;4.55;;;;;;;30.67;28.93;99944.91;5049528;28;20045;-43
2021/09/05 07:14:28;;;;;;;7.07;4.18;;;;;;;30.60;28.55;99947.41;5049470;28;20032;-42
2021/09/05 07:16:54;;;;;;;5.43;4.32;;;;;;;31.00;28.53;99957.97;5049449;28;20489;-42
2021/09/05 07:19:19;;;;;;;4.70;3.92;;;;;;;31.03;28.00;99951.78;5049177;28;20107;-41
2021/09/05 07:21:45;;;;;;;5.20;4.10;;;;;;;30.77;28.83;99955.53;5049522;28;20017;-43
2021/09/05 07:24:10;;;;;;;4.63;4.00;;;;;;;30.98;28.28;99954.75;5049633;28;20521;-43
2021/09/05 07:26:38;;;;;;;10.38;5.45;;;;;;;30.98;28.12;99961.06;5049596;28;20052;-42
2021/09/05 07:29:04;;;;;;;10.57;5.53;;;;;;;31.05;27.63;99960.50;5048857;28;20458;-42
2021/09/05 07:31:29;;;;;;;9.57;5.00;;;;;;;30.90;28.07;99953.69;5049528;28;20036;-42
2021/09/05 07:33:55;;;;;;;6.05;4.25;;;;;;;31.05;28.42;99963.25;5049808;28;20032;-42
2021/09/05 07:36:20;;;;;;;6.22;4.32;;;;;;;30.63;28.51;99957.72;5049747;28;20413;-42
2021/09/05 07:38:46;;;;;;;6.45;4.30;;;;;;;30.59;28.00;99967.75;5049283;28;20079;-42
2021/09/05 07:41:13;;;;;;;5.03;4.40;;;;;;;29.70;29.27;99956.63;5049850;28;20044;-43
2021/09/05 07:43:39;;;;;;;5.95;4.53;;;;;;;29.69;29.39;99955.84;5048571;28;20021;-43
2021/09/05 07:46:05;;;;;;;7.10;4.20;;;;;;;30.34;29.16;99953.84;5049839;28;20082;-43
2021/09/05 07:48:30;;;;;;;5.60;4.10;;;;;;;30.97;28.47;99964.94;5048420;28;20033;-43
2021/09/05 07:50:56;;;;;;;7.07;4.07;;;;;;;31.32;27.36;99964.66;5049720;28;20484;-42
2021/09/05 07:53:21;;;;;;;8.38;4.72;;;;;;;31.95;26.94;99958.19;5049594;28;20032;-42
2021/09/05 07:55:47;;;;;;;8.20;4.22;;;;;;;30.58;27.61;99957.94;5048790;28;20395;-41
2021/09/05 07:58:12;;;;;;;5.35;4.22;;;;;;;29.66;28.88;99955.69;5048508;28;20044;-42
2021/09/05 08:00:38;;;;;;;6.65;4.20;;;;;;;30.08;29.17;99961.38;5049864;28;20028;-42
2021/09/05 08:03:03;;;;;;;7.00;4.03;;;;;;;30.08;29.04;99964.13;5049515;28;20493;-43
2021/09/05 08:05:29;;;;;;;7.03;4.60;;;;;;;29.75;29.24;99953.75;5049621;28;20021;-42
2021/09/05 08:07:54;;;;;;;9.65;5.45;;;;;;;30.26;29.15;99964.84;5049104;28;20029;-42
2021/09/05 08:10:20;;;;;;;6.10;4.55;;;;;;;30.92;27.89;99956.09;5049295;28;20049;-41
2021/09/05 08:12:45;;;;;;;6.25;4.10;;;;;;;31.38;27.02;99938.53;5049666;28;20028;-43
2021/09/05 08:15:11;;;;;;;6.75;4.30;;;;;;;31.33;26.97;99951.69;5049021;28;20017;-42
2021/09/05 08:17:36;;;;;;;5.43;4.50;;;;;;;31.86;26.05;99935.47;5049113;28;20086;-42
2021/09/05 08:20:03;;;;;;;9.50;4.10;;;;;;;31.69;26.92;99941.97;5048603;28;20096;-42
2021/09/05 08:22:28;;;;;;;6.65;4.53;;;;;;;32.00;26.34;99949.69;5049061;28;20025;-42
2021/09/05 08:24:54;;;;;;;6.50;4.47;;;;;;;31.83;25.82;99944.41;5048881;28;20025;-42
2021/09/05 08:27:19;;;;;;;6.70;4.97;;;;;;;32.15;25.61;99940.78;5048706;28;20029;-42
2021/09/05 08:29:44;;;;;;;5.80;4.32;;;;;;;32.51;25.49;99947.41;5048685;28;20028;-42
2021/09/05 08:32:10;;;;;;;13.55;5.05;;;;;;;32.76;25.17;99947.41;5051693;28;20030;-42
2021/09/05 08:34:36;;;;;;;6.75;4.57;;;;;;;32.94;24.43;99947.94;5052779;28;20439;-43
2021/09/05 08:37:02;;;;;;;5.63;4.50;;;;;;;33.31;24.07;99939.53;5053041;28;20036;-42
2021/09/05 08:39:28;;;;;;;5.85;4.10;;;;;;;33.19;24.26;99942.38;5052323;28;20028;-42
2021/09/05 08:41:55;;;;;;;5.10;4.45;;;;;;;33.58;23.55;99937.09;5052917;28;20076;-43
2021/09/05 08:44:21;;;;;;;6.22;4.60;;;;;;;33.79;23.14;99926.63;5052864;28;20021;-42
2021/09/05 08:46:46;;;;;;;6.35;4.40;;;;;;;34.38;23.00;99943.44;5052699;28;20032;-43
2021/09/05 08:49:11;;;;;;;6.70;4.32;;;;;;;34.70;22.84;99944.19;5032802;28;20025;-42
2021/09/05 08:51:37;;;;;;;6.07;4.28;;;;;;;35.20;22.42;99941.66;5014802;28;20478;-42
2021/09/05 08:54:02;;;;;;;6.70;4.50;;;;;;;34.74;21.69;99936.75;5032745;28;20021;-43
2021/09/05 08:56:28;;;;;;;5.22;4.38;;;;;;;34.59;21.96;99935.63;5032300;28;20083;-43
2021/09/05 08:58:53;;;;;;;6.55;4.53;;;;;;;34.64;21.61;99932.56;5030841;28;20152;-42
2021/09/05 09:01:27;;;;;;;5.50;4.25;;;;;;;34.02;22.07;99929.53;5032709;28;20017;-43
2021/09/05 09:04:06;;;;;;;5.32;4.03;;;;;;;33.44;22.65;99924.53;5032442;28;20025;-42
2021/09/05 09:06:39;;;;;;;8.07;4.20;;;;;;;33.66;23.08;99925.94;5031699;28;20022;-43
2021/09/05 09:09:04;;;;;;;5.63;4.38;;;;;;;33.31;23.26;99920.22;5031321;28;20120;-43
2021/09/05 09:11:49;;;;;;;4.68;4.00;;;;;;;34.16;22.67;99914.53;5032326;28;20442;-43
2021/09/05 09:14:15;;;;;;;6.47;4.57;;;;;;;34.32;21.93;99928.31;5032080;28;20025;-42
2021/09/05 09:16:41;;;;;;;5.85;4.38;;;;;;;33.41;22.78;99922.47;5032369;28;20523;-43
2021/09/05 09:19:06;;;;;;;5.22;3.97;;;;;;;33.61;22.06;99920.63;5032438;28;20021;-43
2021/09/05 09:21:38;;;;;;;5.85;3.83;;;;;;;33.18;22.22;99918.69;5032276;28;20501;-43
2021/09/05 09:24:25;;;;;;;6.15;4.15;;;;;;;33.00;22.84;99915.41;5032563;28;20064;-43
2021/09/05 09:27:05;;;;;;;5.43;4.22;;;;;;;33.36;22.41;99908.13;5032193;28;20025;-42
2021/09/05 09:29:32;;;;;;;7.10;4.13;;;;;;;33.60;21.98;99907.97;5032552;28;20053;-42
2021/09/05 09:32:02;;;;;;;5.93;4.35;;;;;;;33.54;22.15;99912.16;5032685;28;20025;-43
2021/09/05 09:34:27;;;;;;;6.47;4.43;;;;;;;33.96;21.18;99906.16;5031976;28;20105;-44
2021/09/05 09:36:59;;;;;;;5.32;3.83;;;;;;;33.93;21.45;99908.81;5032181;28;20025;-42
2021/09/05 09:39:26;;;;;;;6.65;4.30;;;;;;;33.10;22.45;99895.63;5032026;28;20029;-42
2021/09/05 09:41:52;;;;;;;7.20;4.15;;;;;;;32.75;22.77;99909.16;5030864;28;20581;-42
2021/09/05 09:44:17;;;;;;;6.88;3.80;;;;;;;33.07;22.17;99901.81;5031187;28;20025;-43
2021/09/05 09:46:46;;;;;;;5.90;3.95;;;;;;;33.75;22.06;99889.88;5032352;28;20524;-44
2021/09/05 09:49:12;;;;;;;;;;;;;;;34.58;20.93;99881.53;5032051;28;20033;-42
2021/09/05 09:51:38;;;;;;;8.80;4.00;;;;;;;34.22;21.00;99899.28;5031950;28;19915;-42
2021/09/05 09:54:04;;;;;;;5.03;3.50;;;;;;;33.80;21.16;99903.41;5032387;28;20064;-42
2021/09/05 09:56:29;;;;;;;4.53;3.65;;;;;;;33.25;22.01;99902.34;5032120;28;20017;-43
2021/09/05 09:59:00;;;;;;;6.50;3.55;;;;;;;33.36;21.40;99892.41;5031657;28;20385;-43
2021/09/05 10:01:26;;;;;;;6.53;3.63;;;;;;;32.64;21.99;99898.66;5031902;28;20108;-42
2021/09/05 10:03:53;;;;;;;5.38;3.50;;;;;;;32.54;21.80;99897.16;5031726;28;20013;-43
2021/09/05 10:06:19;;;;;;;4.85;3.80;;;;;;;32.61;22.31;99890.28;5031389;28;20026;-43
2021/09/05 10:08:44;;;;;;;5.88;4.07;;;;;;;33.18;21.69;99891.91;5029494;28;20116;-43
2021/09/05 10:11:11;;;;;;;5.25;3.83;;;;;;;33.93;21.33;99890.31;5031394;28;20105;-44
2021/09/05 10:13:38;;;;;;;4.03;3.42;;;;;;;33.26;21.70;99884.63;5031404;28;20109;-43
2021/09/05 10:16:04;;;;;;;6.55;4.20;;;;;;;32.30;22.57;99883.44;5030924;28;20025;-43
2021/09/05 10:18:29;;;;;;;5.68;3.65;;;;;;;32.36;22.58;99881.25;5031224;28;20021;-43
2021/09/05 10:20:57;;;;;;;5.00;3.70;;;;;;;32.86;21.75;99883.56;5030830;28;20083;-44
2021/09/05 10:23:33;;;;;;;5.43;3.60;;;;;;;32.53;22.00;99886.47;5030899;28;20033;-42
2021/09/05 10:26:08;;;;;;;6.00;3.45;;;;;;;32.68;21.95;99883.03;5031063;28;20695;-43
2021/09/05 10:28:41;;;;;;;6.72;3.55;;;;;;;32.55;22.52;99886.94;5030457;28;20033;-43
2021/09/05 10:31:07;;;;;;;5.53;3.60;;;;;;;31.67;24.16;99879.06;5031049;28;20021;-43
2021/09/05 10:33:37;;;;;;;5.07;3.35;;;;;;;32.28;21.99;99886.53;5031045;28;20036;-43
2021/09/05 10:36:10;;;;;;;4.32;3.15;;;;;;;33.10;21.47;99868.06;5030590;28;20032;-43
2021/09/05 10:38:37;;;;;;;5.85;3.40;;;;;;;33.52;20.96;99878.63;5029540;28;20034;-42
2021/09/05 10:41:22;;;;;;;4.43;3.53;;;;;;;34.26;20.35;99886.38;5030445;28;20543;-43
2021/09/05 10:43:48;;;;;;;6.25;3.35;;;;;;;33.13;20.57;99883.94;5030310;28;20048;-44
2021/09/05 10:46:16;;;;;;;5.10;3.47;;;;;;;33.22;20.94;99881.00;5030494;28;20543;-43
2021/09/05 10:48:49;;;;;;;6.15;3.20;;;;;;;33.03;20.84;99876.91;5045885;28;20032;-42
2021/09/05 10:51:23;;;;;;;5.57;3.10;;;;;;;32.17;21.21;99876.34;5050506;28;20037;-44
2021/09/05 10:53:56;;;;;;;4.82;3.00;;;;;;;31.93;20.92;99883.44;5049349;28;20029;-42
2021/09/05 10:56:23;;;;;;;3.90;3.00;;;;;;;32.41;20.37;99872.75;5050053;28;20740;-42
2021/09/05 10:59:05;;;;;;;5.22;3.20;;;;;;;31.99;20.85;99881.25;5050162;28;20032;-47
2021/09/05 11:01:34;;;;;;;4.30;3.22;;;;;;;31.29;22.93;99871.84;5050004;28;20444;-47
2021/09/05 11:04:13;;;;;;;5.32;3.53;;;;;;;31.18;21.83;99862.44;5050139;28;20025;-50
2021/09/05 11:06:49;;;;;;;4.63;3.30;;;;;;;30.69;22.19;99862.22;5050083;28;20025;-47
2021/09/05 11:09:17;;;;;;;4.45;3.13;;;;;;;31.19;22.04;99866.81;5049514;28;20170;-48
2021/09/05 11:11:55;;;;;;;3.78;3.28;;;;;;;31.59;21.41;99868.16;5049345;28;20036;-47
2021/09/05 11:14:36;;;;;;;7.10;3.80;;;;;;;30.05;23.47;99874.25;5049629;28;20032;-47
2021/09/05 11:17:07;;;;;;;6.63;3.72;;;;;;;30.57;23.43;99868.44;5049252;28;20087;-48
2021/09/05 11:19:36;;;;;;;4.45;3.50;;;;;;;31.08;23.01;99860.13;5049323;28;20029;-50
2021/09/05 11:22:05;;;;;;;;;;;;;;;32.20;22.03;99870.16;5050340;28;20469;-47
2021/09/05 11:24:33;;;;;;;7.13;3.33;;;;;;;32.15;21.69;99863.72;5050140;28;19909;-47
2021/09/05 11:27:02;;;;;;;;;;;;;;;32.24;20.98;99860.06;5050543;28;20029;-49
2021/09/05 11:29:28;;;;;;;5.15;3.50;;;;;;;32.13;20.87;99854.22;5049451;28;19915;-47
2021/09/05 11:32:00;;;;;;;4.15;3.38;;;;;;;31.15;22.20;99858.44;5049302;28;20036;-47
2021/09/05 11:34:25;;;;;;;6.40;3.60;;;;;;;31.46;21.79;99859.91;5048716;28;20036;-50